MTN8975 KBOS-KEWR
Flight info
| Callsign | MTN8975 |
|---|---|
| Flight time | N/A |
| Altitude | 6000 |
| Route | LOGAN4 BOSOX T303 HFD V3 CMK V623 SAX |
| Aircraft | C208/L-SDFGR/C |
Departure
| Time | 2026-05-08 01:24 |
|---|---|
| Airport | Boston Logan International Airport (KBOS) |
Arrival
| Time | N/A |
|---|---|
| Airport | Newark Liberty International Airport (KEWR) |
| Time | Latitude | Longitude | Altitude | Speed | Heading |
|---|---|---|---|---|---|
| 2026-05-08 00:40 | 42.35795 | -71.01941 | 22 ft | 0 kts | 209° |
| 2026-05-08 01:16 | 42.35792 | -71.01938 | 22 ft | 1 kts | 121° |
| 2026-05-08 01:16 | 42.35797 | -71.01931 | 22 ft | 0 kts | 27° |
| 2026-05-08 01:16 | 42.35804 | -71.01928 | 24 ft | 5 kts | 20° |
| 2026-05-08 01:17 | 42.35824 | -71.01918 | 22 ft | 6 kts | 18° |
| 2026-05-08 01:17 | 42.35845 | -71.01828 | 23 ft | 16 kts | 92° |
| 2026-05-08 01:17 | 42.35842 | -71.01767 | 23 ft | 0 kts | 96° |
| 2026-05-08 01:17 | 42.35840 | -71.01746 | 23 ft | 7 kts | 99° |
| 2026-05-08 01:18 | 42.35824 | -71.01624 | 23 ft | 19 kts | 100° |
| 2026-05-08 01:18 | 42.35944 | -71.01529 | 22 ft | 26 kts | 16° |
| 2026-05-08 01:18 | 42.36127 | -71.01440 | 19 ft | 31 kts | 20° |
| 2026-05-08 01:18 | 42.36307 | -71.01345 | 15 ft | 17 kts | 34° |
| 2026-05-08 01:19 | 42.36306 | -71.01256 | 16 ft | 8 kts | 126° |
| 2026-05-08 01:19 | 42.36265 | -71.01156 | 17 ft | 18 kts | 116° |
| 2026-05-08 01:19 | 42.36200 | -71.00967 | 17 ft | 26 kts | 116° |
| 2026-05-08 01:19 | 42.36155 | -71.00830 | 14 ft | 0 kts | 110° |
| 2026-05-08 01:20 | 42.36145 | -71.00792 | 12 ft | 11 kts | 108° |
| 2026-05-08 01:20 | 42.36102 | -71.00640 | 12 ft | 22 kts | 111° |
| 2026-05-08 01:20 | 42.36046 | -71.00409 | 15 ft | 30 kts | 109° |
| 2026-05-08 01:21 | 42.35973 | -71.00148 | 17 ft | 15 kts | 113° |
| 2026-05-08 01:21 | 42.35936 | -71.00052 | 16 ft | 9 kts | 130° |
| 2026-05-08 01:21 | 42.35933 | -71.00048 | 16 ft | 0 kts | 129° |
| 2026-05-08 01:22 | 42.35917 | -71.00026 | 16 ft | 8 kts | 134° |
| 2026-05-08 01:22 | 42.35905 | -71.00008 | 16 ft | 11 kts | 132° |
| 2026-05-08 01:22 | 42.35817 | -70.99919 | 18 ft | 16 kts | 223° |
| 2026-05-08 01:22 | 42.35807 | -70.99993 | 18 ft | 10 kts | 252° |
| 2026-05-08 01:23 | 42.35804 | -71.00011 | 18 ft | 0 kts | 257° |
| 2026-05-08 01:23 | 42.35795 | -71.00058 | 17 ft | 24 kts | 256° |
| 2026-05-08 01:23 | 42.35717 | -71.00510 | 14 ft | 73 kts | 257° |
| 2026-05-08 01:24 | 42.35534 | -71.01238 | 175 ft | 88 kts | 250° |
| 2026-05-08 01:24 | 42.35352 | -71.02079 | 353 ft | 100 kts | 258° |
| 2026-05-08 01:24 | 42.35162 | -71.03048 | 550 ft | 113 kts | 257° |
| 2026-05-08 01:24 | 42.34953 | -71.04115 | 756 ft | 125 kts | 257° |
| 2026-05-08 01:25 | 42.34725 | -71.05292 | 964 ft | 133 kts | 257° |
| 2026-05-08 01:25 | 42.34483 | -71.06526 | 1182 ft | 137 kts | 257° |
| 2026-05-08 01:25 | 42.34236 | -71.07761 | 1463 ft | 129 kts | 258° |
| 2026-05-08 01:25 | 42.33987 | -71.08817 | 1745 ft | 108 kts | 256° |
| 2026-05-08 01:26 | 42.33760 | -71.09705 | 2019 ft | 94 kts | 257° |
| 2026-05-08 01:26 | 42.33542 | -71.10519 | 2293 ft | 90 kts | 257° |
| 2026-05-08 01:26 | 42.33335 | -71.11301 | 2575 ft | 87 kts | 257° |
| 2026-05-08 01:26 | 42.33133 | -71.12071 | 2876 ft | 86 kts | 257° |
| 2026-05-08 01:27 | 42.32938 | -71.12827 | 3168 ft | 86 kts | 257° |
| 2026-05-08 01:27 | 42.32737 | -71.13580 | 3454 ft | 84 kts | 256° |
| 2026-05-08 01:27 | 42.32547 | -71.14299 | 3741 ft | 78 kts | 256° |
| 2026-05-08 01:27 | 42.32374 | -71.14959 | 4011 ft | 70 kts | 256° |
| 2026-05-08 01:28 | 42.32216 | -71.15553 | 4194 ft | 66 kts | 258° |
| 2026-05-08 01:28 | 42.32121 | -71.16130 | 3676 ft | 61 kts | 232° |
| 2026-05-08 01:28 | 42.32066 | -71.16838 | 2002 ft | 0 kts | 266° |